Time;durP1;ratioP1;P1;durP2;ratioP2;P2;SDS_P1;SDS_P2;PMS_P1;PMS_P2;Temp;Humidity;BMP_temperature;BMP_pressure;BME280_temperature;BME280_humidity;BME280_pressure;Samples;Min_cycle;Max_cycle;Signal;HPM_P1;HPM_P2
2022/06/01 00:00:15;;;;;;;2.28;1.25;;;15.90;73.80;;;;;;4979068;28;97224;-47
2022/06/01 00:02:46;;;;;;;3.17;1.77;;;15.90;73.70;;;;;;4986687;28;95790;-47
2022/06/01 00:05:16;;;;;;;3.45;1.20;;;15.90;73.50;;;;;;4985566;28;95977;-41
2022/06/01 00:07:49;;;;;;;1.98;1.33;;;15.90;73.60;;;;;;4981935;28;96447;-47
2022/06/01 00:10:21;;;;;;;1.33;1.23;;;16.00;73.70;;;;;;4984433;28;96064;-45
2022/06/01 00:12:54;;;;;;;2.13;1.15;;;16.00;73.90;;;;;;4983434;28;95300;-43
2022/06/01 00:15:27;;;;;;;1.13;1.00;;;16.00;74.00;;;;;;4981089;28;95690;-46
2022/06/01 00:18:00;;;;;;;3.13;1.40;;;16.10;73.90;;;;;;4985996;28;103021;-45
2022/06/01 00:20:30;;;;;;;1.90;1.10;;;16.20;73.90;;;;;;4981275;28;95823;-47
2022/06/01 00:23:02;;;;;;;1.80;0.95;;;16.20;73.90;;;;;;4985174;28;95815;-46
2022/06/01 00:25:32;;;;;;;;;;;16.20;73.80;;;;;;4982894;28;95904;-45
2022/06/01 00:28:05;;;;;;;1.75;1.02;;;16.20;73.70;;;;;;4985684;28;96823;-46
2022/06/01 00:30:37;;;;;;;1.88;1.20;;;16.30;73.60;;;;;;4978173;28;95765;-46
2022/06/01 00:33:08;;;;;;;;;;;16.30;73.40;;;;;;4992040;28;96032;-43
2022/06/01 00:35:39;;;;;;;2.93;1.53;;;16.30;73.20;;;;;;4985105;28;95312;-47
2022/06/01 00:38:10;;;;;;;4.38;1.67;;;16.30;73.20;;;;;;4986901;28;96126;-49
2022/06/01 00:40:41;;;;;;;3.00;1.38;;;16.30;73.20;;;;;;4987664;28;95979;-48
2022/06/01 00:43:29;;;;;;;3.03;1.40;;;16.30;73.00;;;;;;4990376;28;95383;-46
2022/06/01 00:45:59;;;;;;;3.28;1.42;;;16.30;72.80;;;;;;4978638;28;95792;-48
2022/06/01 00:48:33;;;;;;;3.13;1.40;;;16.40;72.60;;;;;;4984829;28;95981;-39
2022/06/01 00:51:04;;;;;;;2.85;1.20;;;16.40;72.50;;;;;;4984089;28;95903;-48
2022/06/01 00:53:39;;;;;;;2.95;1.10;;;16.30;72.50;;;;;;4985555;28;95992;-50
2022/06/01 00:56:27;;;;;;;5.03;1.73;;;16.40;72.30;;;;;;4984298;28;97891;-48
2022/06/01 00:59:02;;;;;;;3.67;1.20;;;16.40;72.10;;;;;;4969211;28;96412;-51
2022/06/01 01:01:36;;;;;;;1.95;1.50;;;16.40;72.40;;;;;;4974468;28;96075;-47
2022/06/01 01:04:07;;;;;;;3.47;1.75;;;16.40;72.60;;;;;;4983628;28;95832;-49
2022/06/01 01:06:40;;;;;;;2.17;0.97;;;16.50;72.70;;;;;;4984375;28;98263;-53
2022/06/01 01:09:14;;;;;;;2.08;1.13;;;16.50;72.80;;;;;;4984712;28;96058;-46
2022/06/01 01:12:06;;;;;;;3.15;1.10;;;16.60;72.90;;;;;;4979810;28;96123;-47
2022/06/01 01:14:43;;;;;;;2.75;1.25;;;16.60;73.00;;;;;;4984308;28;95827;-46
2022/06/01 01:17:15;;;;;;;2.97;1.30;;;16.60;72.00;;;;;;4975234;28;97009;-54
2022/06/01 01:19:52;;;;;;;2.95;1.38;;;16.60;71.90;;;;;;4981943;28;96510;-49
2022/06/01 01:23:07;;;;;;;3.35;1.98;;;16.60;71.80;;;;;;4980724;28;96150;-48
2022/06/01 01:25:39;;;;;;;1.90;1.25;;;16.60;71.80;;;;;;4971165;28;96884;-44
2022/06/01 01:28:10;;;;;;;4.05;1.27;;;16.60;71.40;;;;;;4980860;28;95833;-46
2022/06/01 01:31:00;;;;;;;4.97;1.33;;;16.60;71.40;;;;;;4972209;28;97708;-45
2022/06/01 01:33:31;;;;;;;3.60;1.25;;;16.60;71.50;;;;;;4975976;28;97053;-45
2022/06/01 01:36:05;;;;;;;1.60;1.20;;;16.60;71.40;;;;;;4982371;28;95735;-44
2022/06/01 01:38:55;;;;;;;6.72;1.88;;;16.60;71.50;;;;;;4984179;28;95655;-47
2022/06/01 01:41:41;;;;;;;3.50;1.40;;;16.60;71.40;;;;;;4984937;28;95927;-45
2022/06/01 01:44:19;;;;;;;2.08;1.30;;;16.60;71.50;;;;;;4981841;28;95966;-52
2022/06/01 01:46:51;;;;;;;4.78;1.73;;;16.60;71.60;;;;;;4960711;28;96156;-39
2022/06/01 01:49:24;;;;;;;4.57;1.20;;;16.60;71.90;;;;;;4986323;28;95603;-55
2022/06/01 01:52:00;;;;;;;4.90;1.60;;;16.70;71.70;;;;;;4960999;28;96299;-43
2022/06/01 01:55:00;;;;;;;3.33;1.60;;;16.70;71.40;;;;;;4974745;28;96767;-45
2022/06/01 01:57:40;;;;;;;3.15;1.70;;;16.80;71.80;;;;;;4950690;28;96337;-48
2022/06/01 02:00:15;;;;;;;4.00;1.40;;;16.90;71.90;;;;;;4977829;28;95761;-46
2022/06/01 02:03:22;;;;;;;2.75;1.17;;;16.90;71.80;;;;;;4979404;28;102402;-48
2022/06/01 02:06:09;;;;;;;1.67;1.02;;;17.00;72.00;;;;;;4981219;28;95907;-46
2022/06/01 02:08:48;;;;;;;2.08;1.35;;;17.10;72.20;;;;;;4981856;28;95784;-49
2022/06/01 02:14:38;;;;;;;2.17;1.25;;;17.30;71.50;;;;;;4985211;28;96514;-49
2022/06/01 02:17:38;;;;;;;2.42;1.52;;;17.40;71.00;;;;;;4979447;28;98652;-45
2022/06/01 02:20:23;;;;;;;1.83;1.05;;;17.50;70.90;;;;;;4983422;28;97234;-44
2022/06/01 02:22:55;;;;;;;2.78;1.02;;;17.60;71.80;;;;;;4985109;28;95608;-47
2022/06/01 02:25:26;;;;;;;1.70;0.80;;;17.60;71.80;;;;;;4974760;28;96522;-46
2022/06/01 02:27:58;;;;;;;1.88;1.02;;;17.60;71.80;;;;;;4985534;28;95734;-50
2022/06/01 02:30:33;;;;;;;1.85;1.08;;;17.70;71.80;;;;;;4978972;28;98386;-52
2022/06/01 02:33:06;;;;;;;2.72;0.90;;;17.70;71.80;;;;;;4983873;28;96545;-47
2022/06/01 02:35:43;;;;;;;3.10;1.30;;;17.80;71.40;;;;;;4983872;28;96009;-48
2022/06/01 02:38:25;;;;;;;1.83;1.42;;;17.70;69.50;;;;;;4982664;28;96172;-49
2022/06/01 02:40:55;;;;;;;1.25;0.88;;;17.60;70.00;;;;;;4982215;28;96468;-45
2022/06/01 02:43:26;;;;;;;5.05;1.35;;;17.60;70.20;;;;;;4984948;28;95847;-48
2022/06/01 02:45:57;;;;;;;;;;;17.50;70.10;;;;;;4960230;28;96224;-48
2022/06/01 02:48:27;;;;;;;2.80;1.20;;;17.50;70.30;;;;;;4973589;28;96143;-47
2022/06/01 02:51:00;;;;;;;4.55;1.60;;;17.40;70.40;;;;;;4984590;28;95921;-47
2022/06/01 02:53:30;;;;;;;;;;;17.40;70.40;;;;;;4982971;28;96154;-49
2022/06/01 02:56:01;;;;;;;4.65;1.20;;;17.40;70.40;;;;;;4985445;28;96092;-51
2022/06/01 02:58:34;;;;;;;2.17;1.23;;;17.30;70.60;;;;;;4983749;28;95859;-53
2022/06/01 03:01:06;;;;;;;2.78;1.13;;;17.30;70.60;;;;;;4978234;28;95748;-49
2022/06/01 03:03:39;;;;;;;4.90;1.83;;;17.30;70.70;;;;;;4985232;28;96419;-50
2022/06/01 03:06:10;;;;;;;3.47;1.45;;;17.20;70.60;;;;;;4984386;28;96566;-50
2022/06/01 03:08:41;;;;;;;5.47;1.60;;;17.20;70.70;;;;;;4981784;28;96478;-53
2022/06/01 03:11:13;;;;;;;3.00;1.38;;;17.20;70.80;;;;;;4982758;28;95654;-52
2022/06/01 03:13:44;;;;;;;4.50;1.50;;;17.20;70.80;;;;;;4984350;28;96115;-53
2022/06/01 03:16:15;;;;;;;1.57;1.07;;;17.20;70.80;;;;;;4977205;28;96818;-46
2022/06/01 03:18:46;;;;;;;5.25;1.05;;;17.10;70.70;;;;;;4982860;28;97197;-47
2022/06/01 03:21:17;;;;;;;2.10;1.38;;;17.10;70.70;;;;;;4983419;28;95947;-47
2022/06/01 03:23:48;;;;;;;2.47;1.42;;;17.10;70.70;;;;;;4983128;28;95823;-48
2022/06/01 03:26:19;;;;;;;6.75;1.70;;;17.10;70.90;;;;;;4979894;28;95788;-44
2022/06/01 03:28:50;;;;;;;4.05;1.08;;;17.10;71.10;;;;;;4981820;28;95957;-45
2022/06/01 03:31:20;;;;;;;5.00;1.38;;;17.00;71.20;;;;;;4977499;28;96072;-48
2022/06/01 03:33:50;;;;;;;4.70;1.55;;;17.00;71.10;;;;;;4982392;28;96047;-47
2022/06/01 03:36:21;;;;;;;2.80;1.40;;;17.00;71.20;;;;;;4982225;28;96154;-48
2022/06/01 03:38:54;;;;;;;5.78;1.77;;;17.00;71.20;;;;;;4983127;28;96042;-44
2022/06/01 03:41:27;;;;;;;6.80;1.73;;;17.00;71.70;;;;;;4983523;28;95852;-44
2022/06/01 03:46:47;;;;;;;4.68;1.30;;;17.10;71.90;;;;;;4969268;28;100371;-43
2022/06/01 03:49:20;;;;;;;4.10;1.30;;;17.20;72.10;;;;;;4985470;28;95914;-44
2022/06/01 03:51:51;;;;;;;2.75;1.30;;;17.20;72.30;;;;;;4983981;28;96613;-48
2022/06/01 03:54:22;;;;;;;3.17;1.20;;;17.30;72.60;;;;;;4987220;28;95425;-44
2022/06/01 03:56:53;;;;;;;3.25;1.33;;;17.40;72.90;;;;;;4987505;28;96056;-47
2022/06/01 03:59:31;;;;;;;5.25;1.20;;;17.50;73.10;;;;;;4981163;28;96103;-45
2022/06/01 04:02:05;;;;;;;2.85;0.88;;;17.60;73.00;;;;;;4967178;28;95373;-46
2022/06/01 04:04:36;;;;;;;2.80;1.20;;;17.60;73.10;;;;;;4966078;28;96096;-54
2022/06/01 04:07:06;;;;;;;4.43;1.08;;;17.70;73.10;;;;;;4964914;28;96995;-46
2022/06/01 04:09:40;;;;;;;4.15;1.00;;;17.80;73.00;;;;;;4951297;28;97310;-50
2022/06/01 04:12:12;;;;;;;1.17;1.08;;;17.70;70.90;;;;;;4966067;28;95929;-48
2022/06/01 04:14:43;;;;;;;1.23;0.95;;;17.60;70.90;;;;;;4963231;28;95924;-47
2022/06/01 04:17:13;;;;;;;4.38;1.17;;;17.60;71.10;;;;;;4957927;28;95906;-50
2022/06/01 04:19:45;;;;;;;3.95;1.40;;;17.60;71.00;;;;;;4964233;28;96348;-47
2022/06/01 04:22:17;;;;;;;6.35;1.48;;;17.50;71.00;;;;;;4966463;28;95450;-41
2022/06/01 04:24:49;;;;;;;3.05;1.10;;;17.60;71.10;;;;;;4964528;28;96116;-42
2022/06/01 04:27:20;;;;;;;4.45;1.10;;;17.60;71.00;;;;;;4964481;28;95775;-39
2022/06/01 04:29:51;;;;;;;;;;;17.60;71.10;;;;;;4966369;28;96640;-45
2022/06/01 04:32:28;;;;;;;3.25;1.17;;;17.60;70.90;;;;;;4968632;28;97806;-48
2022/06/01 04:34:59;;;;;;;3.17;1.38;;;17.60;70.80;;;;;;4975436;28;96040;-49
2022/06/01 04:37:29;;;;;;;2.83;1.35;;;17.60;70.70;;;;;;4979956;28;95276;-49
2022/06/01 04:39:59;;;;;;;2.75;1.30;;;17.50;70.80;;;;;;4980984;28;95761;-48
2022/06/01 04:42:30;;;;;;;2.25;1.45;;;17.50;70.90;;;;;;4977769;28;96009;-50
2022/06/01 04:45:00;;;;;;;2.25;1.25;;;17.40;71.00;;;;;;4978736;28;96068;-48
2022/06/01 04:47:31;;;;;;;2.20;1.10;;;17.40;71.10;;;;;;4969751;28;96776;-42
2022/06/01 04:50:03;;;;;;;1.40;0.90;;;17.40;71.60;;;;;;4963568;28;96491;-45
2022/06/01 04:52:34;;;;;;;1.85;1.20;;;17.50;71.90;;;;;;4967928;28;96004;-47
2022/06/01 04:55:08;;;;;;;1.60;0.88;;;17.60;71.90;;;;;;4970112;28;96575;-52
2022/06/01 04:57:40;;;;;;;3.35;0.90;;;17.70;71.90;;;;;;4971447;28;95907;-43
2022/06/01 05:00:11;;;;;;;;;;;17.80;71.80;;;;;;4968856;28;95525;-42
2022/06/01 05:02:42;;;;;;;2.75;0.95;;;17.80;71.70;;;;;;4977344;28;95908;-45
2022/06/01 05:05:12;;;;;;;1.85;1.20;;;17.90;71.80;;;;;;4980820;28;95676;-44
2022/06/01 05:07:43;;;;;;;2.13;1.08;;;18.00;71.80;;;;;;4980456;28;96636;-42
2022/06/01 05:10:15;;;;;;;2.05;1.00;;;18.00;71.80;;;;;;4986531;28;95881;-52
2022/06/01 05:12:47;;;;;;;3.17;1.30;;;18.10;71.80;;;;;;4964019;28;95774;-45
2022/06/01 05:15:18;;;;;;;4.03;1.30;;;18.10;70.60;;;;;;4977449;28;97888;-42
2022/06/01 05:17:49;;;;;;;3.47;1.23;;;18.00;70.30;;;;;;4980119;28;95937;-43
2022/06/01 05:20:20;;;;;;;3.90;1.17;;;17.90;70.50;;;;;;4982551;28;96533;-44
2022/06/01 05:22:52;;;;;;;3.47;1.30;;;17.90;70.60;;;;;;4983156;28;97669;-44
2022/06/01 05:25:25;;;;;;;2.03;1.27;;;17.90;70.70;;;;;;4982257;28;95401;-45
2022/06/01 05:27:57;;;;;;;4.10;1.30;;;17.80;70.50;;;;;;4979607;28;96072;-44
2022/06/01 05:30:28;;;;;;;4.75;1.65;;;17.80;70.50;;;;;;4971613;28;97248;-45
2022/06/01 05:32:58;;;;;;;2.88;1.15;;;17.80;70.60;;;;;;4965469;28;97316;-47
2022/06/01 05:35:30;;;;;;;2.28;1.48;;;17.80;70.50;;;;;;4963199;28;96290;-46
2022/06/01 05:38:01;;;;;;;2.20;0.90;;;17.70;70.40;;;;;;4964438;28;95894;-44
2022/06/01 05:40:32;;;;;;;;;;;17.70;70.60;;;;;;4963783;28;95432;-44
2022/06/01 05:43:13;;;;;;;2.53;1.08;;;17.70;70.70;;;;;;4964951;28;95883;-50
2022/06/01 05:45:44;;;;;;;2.72;1.13;;;17.70;71.10;;;;;;4965027;28;96119;-54
2022/06/01 05:48:18;;;;;;;4.20;1.47;;;17.70;71.20;;;;;;4984922;28;96062;-53
2022/06/01 05:50:49;;;;;;;1.67;1.13;;;17.80;71.40;;;;;;4988841;28;95780;-43
2022/06/01 05:53:20;;;;;;;3.45;1.02;;;17.80;71.50;;;;;;4971132;28;96058;-47
2022/06/01 05:55:52;;;;;;;4.60;1.15;;;17.90;71.00;;;;;;4988371;28;97343;-44
2022/06/01 05:58:26;;;;;;;4.07;1.63;;;17.90;71.50;;;;;;4987456;28;96320;-42
2022/06/01 06:01:02;;;;;;;2.90;1.30;;;17.90;71.50;;;;;;4977321;28;96527;-42
2022/06/01 06:03:34;;;;;;;4.55;1.33;;;17.90;70.60;;;;;;4964528;28;96924;-43
2022/06/01 06:06:17;;;;;;;4.07;1.77;;;17.80;70.80;;;;;;4964829;28;95932;-44
2022/06/01 06:09:00;;;;;;;1.60;1.27;;;17.80;70.60;;;;;;4965036;28;95911;-45
2022/06/01 06:11:33;;;;;;;2.38;1.25;;;17.70;70.60;;;;;;4967610;28;96733;-58
2022/06/01 06:14:06;;;;;;;2.38;1.40;;;17.80;70.90;;;;;;4969366;28;95721;-53
2022/06/01 06:16:43;;;;;;;1.55;1.15;;;17.90;71.10;;;;;;4952342;28;95980;-61
2022/06/01 06:19:16;;;;;;;3.63;1.38;;;18.00;71.00;;;;;;4964445;28;96500;-60
2022/06/01 06:21:48;;;;;;;3.78;1.30;;;18.10;71.00;;;;;;4949755;28;95565;-54
2022/06/01 06:24:19;;;;;;;;;;;18.20;71.20;;;;;;4968768;28;97825;-56
2022/06/01 06:26:51;;;;;;;1.50;0.93;;;18.30;71.20;;;;;;4970107;28;96354;-59
2022/06/01 06:29:22;;;;;;;2.03;0.93;;;18.30;71.00;;;;;;4968508;28;96475;-56
2022/06/01 06:31:53;;;;;;;2.72;0.93;;;18.40;71.20;;;;;;4963324;28;96097;-53
2022/06/01 06:34:27;;;;;;;1.25;0.93;;;18.40;71.30;;;;;;4966553;28;95702;-54
2022/06/01 06:36:57;;;;;;;2.60;0.80;;;18.40;71.40;;;;;;4965324;28;96109;-54
2022/06/01 06:39:28;;;;;;;4.70;1.27;;;18.40;71.60;;;;;;4967855;28;96166;-47
2022/06/01 06:42:00;;;;;;;5.00;1.60;;;18.40;70.70;;;;;;4968489;28;95743;-44
2022/06/01 06:44:30;;;;;;;;;;;18.30;70.60;;;;;;4950663;28;95797;-42
2022/06/01 06:47:01;;;;;;;4.78;1.60;;;18.30;71.10;;;;;;4963012;28;95944;-39
2022/06/01 06:49:32;;;;;;;;;;;18.30;71.00;;;;;;4966811;28;97411;-51
2022/06/01 06:52:05;;;;;;;4.00;1.30;;;18.20;70.80;;;;;;4968061;28;95316;-53
2022/06/01 06:54:35;;;;;;;3.03;1.33;;;18.10;70.60;;;;;;4963385;28;95606;-52
2022/06/01 06:57:07;;;;;;;6.38;2.33;;;18.10;70.70;;;;;;4950898;28;95625;-52
2022/06/01 06:59:38;;;;;;;3.45;1.63;;;18.10;70.80;;;;;;4966082;28;96755;-55
2022/06/01 07:02:10;;;;;;;5.10;1.75;;;18.10;69.10;;;;;;4962724;28;96123;-49
2022/06/01 07:04:40;;;;;;;2.53;1.48;;;18.00;70.70;;;;;;4968050;28;96009;-52
2022/06/01 07:07:18;;;;;;;5.13;2.00;;;18.00;70.70;;;;;;4967508;28;95736;-54
2022/06/01 07:09:50;;;;;;;6.00;2.40;;;18.00;70.80;;;;;;4980630;28;98510;-52
2022/06/01 07:12:20;;;;;;;;;;;17.90;70.80;;;;;;4966554;28;96139;-53
2022/06/01 07:14:51;;;;;;;4.93;1.73;;;17.90;71.00;;;;;;4968188;28;95926;-53
2022/06/01 07:17:22;;;;;;;6.60;1.77;;;17.80;71.10;;;;;;4961376;28;96571;-53
2022/06/01 07:19:57;;;;;;;4.47;2.05;;;17.80;71.00;;;;;;4966679;28;97784;-52
2022/06/01 07:22:29;;;;;;;5.25;1.90;;;17.80;71.10;;;;;;4965869;28;96616;-49
2022/06/01 07:25:00;;;;;;;;;;;17.70;71.10;;;;;;4966688;28;96987;-48
2022/06/01 07:27:31;;;;;;;2.60;1.35;;;17.70;71.20;;;;;;4968700;28;95862;-47
2022/06/01 07:30:07;;;;;;;3.83;1.38;;;17.70;71.30;;;;;;4962379;28;97190;-52
2022/06/01 07:32:37;;;;;;;4.43;1.67;;;17.60;71.60;;;;;;4960451;28;95828;-53
2022/06/01 07:35:08;;;;;;;3.42;1.67;;;17.60;71.40;;;;;;4962575;28;95850;-53
2022/06/01 07:43:21;;;;;;;2.05;1.33;;;17.60;71.60;;;;;;4962322;28;95690;-56
2022/06/01 07:45:51;;;;;;;5.18;1.20;;;17.60;71.70;;;;;;4957566;28;95904;-59
2022/06/01 07:48:22;;;;;;;2.63;1.23;;;17.70;71.80;;;;;;4964001;28;95594;-57
2022/06/01 07:51:13;;;;;;;1.63;0.93;;;17.80;71.80;;;;;;4962938;28;96443;-54
2022/06/01 07:53:45;;;;;;;;;;;17.80;71.80;;;;;;4965314;28;95844;-55
2022/06/01 07:56:21;;;;;;;2.05;1.13;;;17.90;71.90;;;;;;4965584;28;97411;-55
2022/06/01 07:58:52;;;;;;;4.68;1.05;;;17.90;72.00;;;;;;4963575;28;95907;-55
2022/06/01 08:01:26;;;;;;;1.40;1.13;;;17.80;72.20;;;;;;4954859;28;96601;-55
2022/06/01 08:04:04;;;;;;;2.85;1.20;;;17.80;72.30;;;;;;4965059;28;95470;-51
2022/06/01 08:06:37;;;;;;;2.80;1.30;;;17.70;72.30;;;;;;4964648;28;95650;-55
2022/06/01 08:09:25;;;;;;;2.60;1.00;;;17.70;72.60;;;;;;4965446;28;95768;-58
2022/06/01 08:14:46;;;;;;;2.17;1.10;;;17.80;73.00;;;;;;4962731;28;97702;-55
2022/06/01 08:17:17;;;;;;;10.35;3.78;;;17.80;72.90;;;;;;4954483;28;95788;-55
2022/06/01 08:19:48;;;;;;;18.60;8.13;;;17.80;72.80;;;;;;4963026;28;95858;-53
2022/06/01 08:22:19;;;;;;;20.00;8.00;;;17.80;73.00;;;;;;4978135;28;96075;-55
2022/06/01 08:24:51;;;;;;;19.70;9.15;;;17.90;73.00;;;;;;4963662;28;96253;-54
2022/06/01 08:27:22;;;;;;;24.33;9.98;;;17.90;72.90;;;;;;4963514;28;95787;-56
2022/06/01 08:29:53;;;;;;;27.42;10.65;;;17.80;72.90;;;;;;4962801;28;95824;-56
2022/06/01 08:32:24;;;;;;;31.05;13.80;;;17.90;73.00;;;;;;4955049;28;96993;-57
2022/06/01 08:34:57;;;;;;;42.10;17.95;;;17.80;72.90;;;;;;4960581;28;96632;-56
2022/06/01 08:37:27;;;;;;;57.97;26.25;;;17.80;73.10;;;;;;4963299;28;95709;-55
2022/06/01 08:39:57;;;;;;;76.75;35.92;;;17.80;73.10;;;;;;4962011;28;96005;-55
2022/06/01 08:42:29;;;;;;;114.05;53.88;;;17.80;73.10;;;;;;4962427;28;96863;-54
2022/06/01 08:45:06;;;;;;;287.63;136.45;;;17.80;73.20;;;;;;4962032;28;95776;-56
2022/06/01 08:47:39;;;;;;;296.85;144.70;;;17.70;74.50;;;;;;4956117;28;95877;-54
2022/06/01 08:50:36;;;;;;;320.10;166.13;;;17.60;74.10;;;;;;4962579;28;96506;-56
2022/06/01 08:53:09;;;;;;;355.95;180.40;;;17.60;74.60;;;;;;4962034;28;95904;-56
2022/06/01 08:56:07;;;;;;;330.25;176.10;;;17.50;74.70;;;;;;4961681;28;96110;-59
2022/06/01 08:58:41;;;;;;;335.27;174.32;;;17.50;74.90;;;;;;4962951;28;97370;-59
2022/06/01 09:01:28;;;;;;;338.30;170.68;;;17.50;75.00;;;;;;4955671;28;95864;-59
2022/06/01 09:04:19;;;;;;;332.25;179.25;;;17.40;75.10;;;;;;4962793;28;97441;-60
2022/06/01 09:06:59;;;;;;;325.45;171.13;;;17.40;75.10;;;;;;4941924;28;97866;-60
2022/06/01 09:09:55;;;;;;;350.83;182.88;;;17.30;75.30;;;;;;4959440;28;96907;-60
2022/06/01 09:12:28;;;;;;;288.77;153.57;;;17.30;75.30;;;;;;4958463;28;95494;-57
2022/06/01 09:15:06;;;;;;;222.55;117.68;;;17.30;75.10;;;;;;4958578;28;96606;-57
2022/06/01 09:17:36;;;;;;;156.10;91.97;;;17.40;73.60;;;;;;4958640;28;96835;-57
2022/06/01 09:23:09;;;;;;;109.00;61.53;;;17.30;72.80;;;;;;4962949;28;95892;-57
2022/06/01 09:25:50;;;;;;;93.85;52.10;;;17.40;72.70;;;;;;4967716;28;96620;-55
2022/06/01 09:28:31;;;;;;;75.22;43.72;;;17.40;72.50;;;;;;4971161;28;96671;-53
2022/06/01 09:31:07;;;;;;;71.18;37.75;;;17.40;72.30;;;;;;4966273;28;96690;-52
2022/06/01 09:33:38;;;;;;;60.45;33.20;;;17.40;72.20;;;;;;4971117;28;95712;-57
2022/06/01 09:36:08;;;;;;;72.45;41.88;;;17.40;72.10;;;;;;4965446;28;97922;-55
2022/06/01 09:38:54;;;;;;;95.10;53.60;;;17.40;72.40;;;;;;4963241;28;97366;-49
2022/06/01 09:41:36;;;;;;;95.68;58.05;;;17.50;72.90;;;;;;4968623;28;95749;-47
2022/06/01 09:44:09;;;;;;;97.55;56.00;;;17.50;73.10;;;;;;4970943;28;95384;-48
2022/06/01 09:46:49;;;;;;;91.53;52.53;;;17.60;73.20;;;;;;4963348;28;97763;-49
2022/06/01 09:49:25;;;;;;;86.50;50.00;;;17.50;73.10;;;;;;4968725;28;95660;-51
2022/06/01 09:52:02;;;;;;;88.55;49.55;;;17.60;73.20;;;;;;4967228;28;95884;-51
2022/06/01 09:54:39;;;;;;;83.18;48.95;;;17.50;73.30;;;;;;4968528;28;95940;-52
2022/06/01 09:57:25;;;;;;;89.95;49.85;;;17.50;73.50;;;;;;4967334;28;96619;-58
2022/06/01 10:08:42;;;;;;;72.67;42.93;;;17.40;73.60;;;;;;4979895;28;96067;-54
2022/06/01 10:11:37;;;;;;;72.70;40.00;;;17.40;73.70;;;;;;4979712;28;95251;-55
2022/06/01 10:14:30;;;;;;;73.03;41.25;;;17.40;73.70;;;;;;4979573;28;94944;-54
2022/06/01 10:17:05;;;;;;;70.22;37.85;;;17.40;73.70;;;;;;4978512;28;95173;-55
2022/06/01 10:19:55;;;;;;;71.88;39.67;;;17.40;73.70;;;;;;4979326;28;95441;-56
2022/06/01 10:22:37;;;;;;;61.80;36.30;;;17.30;73.70;;;;;;4979534;28;95050;-55
2022/06/01 10:25:30;;;;;;;61.60;33.75;;;17.30;73.70;;;;;;4979788;28;94932;-55
2022/06/01 10:28:08;;;;;;;60.58;35.15;;;17.30;73.70;;;;;;4979055;28;95356;-55
2022/06/01 10:31:07;;;;;;;57.97;33.30;;;17.30;73.80;;;;;;4978856;28;96287;-54
2022/06/01 10:33:46;;;;;;;60.28;33.80;;;17.20;72.00;;;;;;4978981;28;95310;-54
2022/06/01 10:36:45;;;;;;;59.15;33.35;;;17.20;73.80;;;;;;4979625;28;94919;-53
2022/06/01 10:39:25;;;;;;;52.30;30.88;;;17.20;73.90;;;;;;4979957;28;95178;-54
2022/06/01 10:43:16;;;;;;;51.78;30.63;;;17.10;73.90;;;;;;4978767;28;96548;-54
2022/06/01 10:45:22;;;;;;;52.67;29.98;;;17.10;74.10;;;;;;4978865;28;95212;-58
2022/06/01 10:48:10;;;;;;;58.42;30.42;;;17.10;74.00;;;;;;4979929;28;96257;-56
2022/06/01 10:51:08;;;;;;;49.60;30.42;;;17.10;74.10;;;;;;4962500;28;95453;-56
2022/06/01 10:54:20;;;;;;;49.78;29.95;;;17.10;74.20;;;;;;4979902;28;95846;-54
2022/06/01 10:56:52;;;;;;;51.55;29.10;;;17.00;74.20;;;;;;4979564;28;95799;-55
2022/06/01 10:59:26;;;;;;;45.33;26.63;;;17.00;74.20;;;;;;4979195;28;94888;-55
2022/06/01 11:02:57;;;;;;;45.30;28.63;;;17.00;74.30;;;;;;4978187;28;95400;-57
2022/06/01 11:06:13;;;;;;;46.92;26.90;;;17.00;74.30;;;;;;4913592;28;96603;-56
2022/06/01 11:08:52;;;;;;;50.53;26.77;;;17.00;74.30;;;;;;4918545;28;95826;-51
2022/06/01 11:11:32;;;;;;;42.33;23.33;;;16.90;74.40;;;;;;4918212;28;95254;-56
2022/06/01 11:14:23;;;;;;;41.60;24.15;;;16.90;74.50;;;;;;4918211;28;95280;-56
2022/06/01 11:17:02;;;;;;;37.83;24.30;;;16.90;74.50;;;;;;4927677;28;96520;-57
2022/06/01 11:19:52;;;;;;;38.78;23.83;;;16.90;74.60;;;;;;4937097;28;95836;-56
2022/06/01 11:22:40;;;;;;;37.78;24.00;;;16.80;74.90;;;;;;4937851;28;95120;-56
2022/06/01 11:25:21;;;;;;;43.75;24.70;;;16.80;74.90;;;;;;4937155;28;95363;-58
2022/06/01 11:28:02;;;;;;;45.70;24.27;;;16.90;74.70;;;;;;4937051;28;96460;-59
2022/06/01 11:30:51;;;;;;;36.72;21.52;;;16.80;74.60;;;;;;4937175;28;95832;-58
2022/06/01 11:33:32;;;;;;;39.35;23.65;;;16.80;74.70;;;;;;4921703;28;95201;-57
2022/06/01 11:36:18;;;;;;;38.13;21.80;;;16.80;74.70;;;;;;4937202;28;95448;-55
2022/06/01 11:39:19;;;;;;;39.85;22.92;;;16.80;74.80;;;;;;4952324;28;96505;-56
2022/06/01 11:42:18;;;;;;;37.35;21.23;;;16.80;74.70;;;;;;4964765;28;95301;-57
2022/06/01 11:45:00;;;;;;;36.60;21.65;;;16.80;74.80;;;;;;4973994;28;97182;-56
2022/06/01 11:48:02;;;;;;;31.77;20.92;;;16.70;74.80;;;;;;4977930;28;95080;-55
2022/06/01 11:50:52;;;;;;;34.65;20.63;;;16.70;74.80;;;;;;4978262;28;95874;-54
2022/06/01 11:53:34;;;;;;;32.03;20.05;;;16.70;74.80;;;;;;4978452;28;95876;-56
2022/06/01 11:56:35;;;;;;;33.22;19.20;;;16.60;74.80;;;;;;4978625;28;95014;-60
2022/06/01 11:59:26;;;;;;;31.40;19.07;;;16.60;74.90;;;;;;4978662;28;95457;-57
2022/06/01 12:02:40;;;;;;;31.90;19.15;;;16.60;74.90;;;;;;4977172;28;96691;-55
2022/06/01 12:05:32;;;;;;;29.45;17.65;;;16.60;74.90;;;;;;4977998;28;95806;-55
2022/06/01 12:08:20;;;;;;;30.33;18.27;;;16.60;75.00;;;;;;4978226;28;95063;-54
2022/06/01 12:11:04;;;;;;;26.95;17.88;;;16.50;75.00;;;;;;4978505;28;95198;-56
2022/06/01 12:13:39;;;;;;;27.48;16.95;;;16.50;75.00;;;;;;4977842;28;96592;-58
2022/06/01 12:16:28;;;;;;;27.23;17.08;;;16.50;75.10;;;;;;4977597;28;95063;-56
2022/06/01 12:19:35;;;;;;;27.83;16.50;;;16.70;75.30;;;;;;4977642;28;94969;-59
2022/06/01 12:28:30;;;;;;;23.58;14.80;;;16.80;75.20;;;;;;4977413;28;95302;-60
2022/06/01 12:28:33;;;;;;;20.45;12.02;;;16.90;75.20;;;;;;4977486;28;95442;-58
2022/06/01 12:31:57;;;;;;;22.50;13.65;;;17.00;75.20;;;;;;4977556;28;94952;-51
2022/06/01 12:34:56;;;;;;;21.33;13.15;;;17.00;74.90;;;;;;4977260;28;95360;-46
2022/06/01 12:37:32;;;;;;;18.00;11.60;;;17.10;74.90;;;;;;4976990;28;96410;-54
2022/06/01 12:40:17;;;;;;;19.33;11.80;;;17.10;74.80;;;;;;4977005;28;95506;-58
2022/06/01 12:42:57;;;;;;;20.77;12.10;;;17.10;74.60;;;;;;4977765;28;94972;-57
2022/06/01 12:45:40;;;;;;;17.40;11.10;;;17.00;74.80;;;;;;4977570;28;95309;-58
2022/06/01 12:48:19;;;;;;;17.75;11.38;;;16.90;74.90;;;;;;4978295;28;95013;-58
2022/06/01 12:51:07;;;;;;;21.42;11.73;;;16.90;75.00;;;;;;4977945;28;95270;-45
2022/06/01 12:53:44;;;;;;;16.95;10.75;;;16.90;75.40;;;;;;4977801;28;94990;-47
2022/06/01 12:56:27;;;;;;;17.92;11.63;;;16.90;75.20;;;;;;4978172;28;95342;-49
2022/06/01 12:58:58;;;;;;;;;;;16.90;75.00;;;;;;4977682;28;96504;-49
2022/06/01 13:01:32;;;;;;;17.30;10.10;;;16.90;74.70;;;;;;4978803;28;95795;-48
2022/06/01 13:04:05;;;;;;;16.48;9.52;;;16.90;74.80;;;;;;4977767;28;94994;-48
2022/06/01 13:06:43;;;;;;;;;;;16.80;74.90;;;;;;4978429;28;95167;-48
2022/06/01 13:09:24;;;;;;;16.98;10.68;;;16.80;75.10;;;;;;4979221;28;96158;-48
2022/06/01 13:12:03;;;;;;;17.77;10.45;;;16.80;75.00;;;;;;4976421;28;94930;-51
2022/06/01 13:14:36;;;;;;;13.93;9.48;;;16.70;75.10;;;;;;4977193;28;95064;-48
2022/06/01 13:17:16;;;;;;;17.10;10.18;;;16.70;75.10;;;;;;4991940;28;95277;-51
2022/06/01 13:20:04;;;;;;;15.82;9.85;;;16.70;75.10;;;;;;4976562;28;96257;-51
2022/06/01 13:22:41;;;;;;;16.88;10.15;;;16.60;74.90;;;;;;4977251;28;95251;-47
2022/06/01 13:25:26;;;;;;;14.90;8.48;;;16.60;75.00;;;;;;4976582;28;95218;-51
2022/06/01 13:28:03;;;;;;;14.13;9.45;;;16.60;75.10;;;;;;4977839;28;95038;-51
2022/06/01 13:30:35;;;;;;;14.55;8.88;;;16.60;75.00;;;;;;4992381;28;96610;-48
2022/06/01 13:33:32;;;;;;;14.35;8.20;;;16.60;75.00;;;;;;4977410;28;95844;-48
2022/06/01 13:36:07;;;;;;;15.95;8.70;;;16.50;75.00;;;;;;4977739;28;95139;-54
2022/06/01 13:38:50;;;;;;;14.50;8.35;;;16.50;74.90;;;;;;4959705;28;95366;-49
2022/06/01 13:41:41;;;;;;;12.07;7.00;;;16.60;75.00;;;;;;4977193;28;95919;-49
2022/06/01 13:44:50;;;;;;;9.88;6.68;;;16.60;75.40;;;;;;4976776;28;95923;-53
2022/06/01 13:47:31;;;;;;;8.82;6.10;;;16.80;75.40;;;;;;4960021;28;94990;-48
2022/06/01 13:50:18;;;;;;;8.90;7.00;;;16.90;75.30;;;;;;4979068;28;94846;-47
2022/06/01 13:52:55;;;;;;;11.30;6.88;;;16.90;75.40;;;;;;4992357;28;96434;-48
2022/06/01 13:55:32;;;;;;;10.55;6.22;;;17.00;75.20;;;;;;4978244;28;95832;-51
2022/06/01 13:58:07;;;;;;;12.15;7.00;;;17.00;75.00;;;;;;4977358;28;94931;-49
2022/06/01 14:00:42;;;;;;;9.18;5.40;;;17.00;74.80;;;;;;4977773;28;95212;-49
2022/06/01 14:03:32;;;;;;;8.82;6.50;;;17.00;74.70;;;;;;4977349;28;96013;-49
2022/06/01 14:06:08;;;;;;;9.90;6.43;;;17.00;74.80;;;;;;4959374;28;96396;-51